Friday, November 24, 2017, 12:33 AM EST
Back to Local

KDDH, Bennington Morse State Airport

Location: Bennington, VT, United States Lat: 42.883
Local Time: 12:33 AM EST ( 5:33 GMT) Lon: -73.25
Time Zone: US/Eastern Elev: 826 ft

Show me the last for .
Show Decoded

2017-11-24 00:27 METAR KDDH 240527Z AUTO 00000KT 10SM OVC031 M02/M05 A2996 RMK AO2 T10171050 =
2017-11-24 00:05 METAR KDDH 240505Z AUTO 00000KT 10SM OVC028 M01/M04 A2996 RMK AO2 T10111044 =
2017-11-23 23:54 METAR KDDH 240454Z AUTO 00000KT 10SM OVC030 M02/M05 A2996 RMK AO2 SLP155
                 T10171050 400061056 =
2017-11-23 22:54 METAR KDDH 240354Z AUTO 00000KT 10SM OVC031 M02/M06 A2996 RMK AO2 SLP156
                 T10171056 =
2017-11-23 21:54 METAR KDDH 240254Z AUTO 00000KT 10SM OVC035 M02/M06 A2996 RMK AO2 SLP155
                 T10221056 58002 =
2017-11-23 20:54 METAR KDDH 240154Z AUTO 00000KT 10SM OVC090 M02/M06 A2997 RMK AO2 SLP160
                 T10171056 =
2017-11-23 19:54 METAR KDDH 240054Z AUTO 00000KT 10SM OVC095 M03/M06 A2997 RMK AO2 SLP160
                 T10281056 =
2017-11-23 18:54 METAR KDDH 232354Z AUTO 00000KT 10SM BKN095 M03/M07 A2997 RMK AO2 SLP159
                 T10331072 10006 21039 56004 =
2017-11-23 17:54 METAR KDDH 232254Z AUTO 15003KT 10SM CLR M03/M07 A2997 RMK AO2 SLP160 T10281067
                 =
2017-11-23 16:54 METAR KDDH 232154Z AUTO 00000KT 10SM SCT080 M01/M08 A2997 RMK AO2 SLP158
                 T10061078 =
2017-11-23 15:54 METAR KDDH 232054Z AUTO VRB04KT 10SM CLR 00/M07 A2998 RMK AO2 SLP162 T00001072
                 56009 =
2017-11-23 14:54 METAR KDDH 231954Z AUTO 31004KT 10SM FEW100 00/M07 A2998 RMK AO2 SLP162
                 T00001072 =
2017-11-23 13:54 METAR KDDH 231854Z AUTO 21006KT 10SM CLR 00/M08 A3000 RMK AO2 SLP166 T00001078 =
2017-11-23 12:54 METAR KDDH 231754Z AUTO 00000KT 10SM CLR M01/M08 A3001 RMK AO2 SLP171 T10061078
                 11006 21056 58020 =
2017-11-23 11:54 METAR KDDH 231654Z AUTO 28005KT 10SM SCT120 M01/M08 A3004 RMK AO2 SLP181
                 T10111078 =
2017-11-23 10:54 METAR KDDH 231554Z AUTO 00000KT 10SM CLR M02/M08 A3006 RMK AO2 SLP188 T10221083
                 =
2017-11-23 09:54 METAR KDDH 231454Z AUTO 32007KT 10SM CLR M02/M08 A3007 RMK AO2 SLP192 T10171083
                 58000 =
2017-11-23 08:54 METAR KDDH 231354Z AUTO 00000KT 10SM CLR M03/M09 A3007 RMK AO2 SLP193 T10331089
                 =
2017-11-23 07:54 METAR KDDH 231254Z AUTO 00000KT 10SM CLR M06/M09 A3007 RMK AO2 SLP193 T10561089
                 =
2017-11-23 06:54 METAR KDDH 231154Z AUTO 25003KT 10SM FEW028 M05/M09 A3007 RMK AO2 SLP192 70009
                 T10501094 11017 21056 52006 =
2017-11-23 06:46 METAR KDDH 231146Z AUTO VRB03KT 10SM SCT029 M05/M09 A3007 RMK AO2 T10501094 =
2017-11-23 06:23 METAR KDDH 231123Z AUTO 27003KT 10SM BKN029 M04/M09 A3007 RMK AO2 T10441089 =
2017-11-23 05:54 METAR KDDH 231054Z AUTO 32004KT 10SM FEW029 M04/M09 A3006 RMK AO2 SLP187
                 T10441094 =
2017-11-23 04:54 METAR KDDH 230954Z AUTO 31004KT 10SM SCT030 M04/M09 A3007 RMK AO2 SLP190
                 T10391089 =
2017-11-23 03:54 METAR KDDH 230854Z AUTO 31004KT 10SM CLR M03/M09 A3005 RMK AO2 SLP185 T10331089
                 50008 =
2017-11-23 02:54 METAR KDDH 230754Z AUTO 34005KT 10SM BKN033 M02/M08 A3005 RMK AO2 SLP185
                 T10221083 =
2017-11-23 01:54 METAR KDDH 230654Z AUTO 29003KT 10SM OVC032 M02/M08 A3004 RMK AO2 SLP180
                 T10221078 =
2017-11-23 00:54 METAR KDDH 230554Z AUTO 31006KT 10SM OVC033 M01/M08 A3003 RMK AO2 SLP175
                 T10111078 10028 21011 51006 =

Support USWX by starting your Amazon purchase here.